createdAt,value
2018-04-15T00:02:23.312Z,20.10
2018-04-15T00:04:50.795Z,20.10
2018-04-15T00:07:18.267Z,20.10
2018-04-15T00:09:45.755Z,20.00
2018-04-15T00:12:13.244Z,20.00
2018-04-15T00:14:40.727Z,20.00
2018-04-15T00:17:08.201Z,20.00
2018-04-15T00:19:35.669Z,20.00
2018-04-15T00:22:03.946Z,20.00
2018-04-15T00:24:31.412Z,20.00
2018-04-15T00:26:58.893Z,20.00
2018-04-15T00:29:26.354Z,20.00
2018-04-15T00:31:53.912Z,19.90
2018-04-15T00:34:21.372Z,19.90
2018-04-15T00:36:48.887Z,19.90
2018-04-15T00:39:16.351Z,19.90
2018-04-15T00:41:43.837Z,19.90
2018-04-15T00:44:11.311Z,19.90
2018-04-15T00:46:38.809Z,19.80
2018-04-15T00:49:06.312Z,19.80
2018-04-15T00:51:33.816Z,19.80
2018-04-15T00:54:13.280Z,19.70
2018-04-15T00:56:40.768Z,19.70
2018-04-15T00:59:08.997Z,19.70
2018-04-15T01:01:36.501Z,19.70
2018-04-15T01:04:03.967Z,19.70
2018-04-15T01:06:31.432Z,19.70
2018-04-15T01:09:00.128Z,19.60
2018-04-15T01:11:27.595Z,19.60
2018-04-15T01:13:55.076Z,19.60
2018-04-15T01:16:22.548Z,19.60
2018-04-15T01:18:50.022Z,19.60
2018-04-15T01:21:17.487Z,19.70
2018-04-15T01:23:44.975Z,19.60
2018-04-15T01:28:48.729Z,19.70
2018-04-15T01:31:16.200Z,19.60
2018-04-15T01:33:43.656Z,19.60
2018-04-15T01:36:11.133Z,19.60
2018-04-15T01:38:38.641Z,19.60
2018-04-15T01:41:06.173Z,19.60
2018-04-15T01:43:33.635Z,19.60
2018-04-15T01:46:01.131Z,19.60
2018-04-15T01:48:29.359Z,19.60
2018-04-15T01:50:56.853Z,19.50
2018-04-15T01:53:24.310Z,19.60
2018-04-15T01:55:51.792Z,19.50
2018-04-15T01:58:19.263Z,19.50
2018-04-15T02:00:46.727Z,19.50
2018-04-15T02:03:14.217Z,19.40
2018-04-15T02:05:41.696Z,19.40
2018-04-15T02:08:09.176Z,19.40
2018-04-15T02:10:36.742Z,19.40
2018-04-15T02:13:04.226Z,19.40
2018-04-15T02:15:31.688Z,19.40
2018-04-15T02:17:59.186Z,19.30
2018-04-15T02:20:27.451Z,19.30
2018-04-15T02:22:54.950Z,19.30
2018-04-15T02:25:22.424Z,19.30
2018-04-15T02:27:50.659Z,19.20
2018-04-15T02:30:18.112Z,19.20
2018-04-15T02:32:45.600Z,19.20
2018-04-15T02:35:13.062Z,19.20
2018-04-15T02:37:40.567Z,19.20
2018-04-15T02:40:08.031Z,19.20
2018-04-15T02:42:35.541Z,19.20
2018-04-15T02:45:03.072Z,19.20
2018-04-15T02:47:30.544Z,19.20
2018-04-15T02:49:58.023Z,19.20
2018-04-15T02:52:25.478Z,19.20
2018-04-15T02:54:52.968Z,19.20
2018-04-15T02:57:20.460Z,19.20
2018-04-15T02:59:48.712Z,19.20
2018-04-15T03:02:16.172Z,19.10
2018-04-15T03:04:43.676Z,19.20
2018-04-15T03:07:11.140Z,19.20
2018-04-15T03:09:38.745Z,19.10
2018-04-15T03:12:06.216Z,19.10
2018-04-15T03:14:33.701Z,19.00
2018-04-15T03:17:01.173Z,19.00
2018-04-15T03:19:28.642Z,18.90
2018-04-15T03:21:56.144Z,18.90
2018-04-15T03:24:23.608Z,18.80
2018-04-15T03:26:51.100Z,18.80
2018-04-15T03:29:18.561Z,18.80
2018-04-15T03:31:46.066Z,18.70
2018-04-15T03:34:14.308Z,18.70
2018-04-15T03:36:42.555Z,18.60
2018-04-15T03:39:10.016Z,18.60
2018-04-15T03:41:37.667Z,18.60
2018-04-15T03:44:05.128Z,18.60
2018-04-15T03:46:32.612Z,18.60
2018-04-15T03:49:00.098Z,18.60
2018-04-15T03:51:28.335Z,18.50
2018-04-15T03:53:55.834Z,18.50
2018-04-15T03:56:23.292Z,18.50
2018-04-15T03:58:50.778Z,18.50
2018-04-15T04:01:19.048Z,18.50
2018-04-15T04:03:46.527Z,18.40
2018-04-15T04:06:13.998Z,18.40
2018-04-15T04:08:41.493Z,18.40
2018-04-15T04:11:08.968Z,18.40
2018-04-15T04:13:37.213Z,18.30
2018-04-15T04:16:05.445Z,18.30
2018-04-15T04:18:45.604Z,18.30
2018-04-15T04:21:24.980Z,18.30
2018-04-15T04:24:04.416Z,18.30
2018-04-15T04:26:32.673Z,18.20
2018-04-15T04:31:34.076Z,18.20
2018-04-15T04:34:01.565Z,18.20
2018-04-15T04:36:29.819Z,18.20
2018-04-15T04:38:57.301Z,18.10
2018-04-15T04:41:24.797Z,18.10
2018-04-15T04:43:53.048Z,18.10
2018-04-15T04:46:20.529Z,18.10
2018-04-15T04:48:48.012Z,18.10
2018-04-15T04:51:15.478Z,18.10
2018-04-15T04:53:42.962Z,18.00
2018-04-15T04:56:10.429Z,18.00
2018-04-15T04:58:37.962Z,18.00
2018-04-15T05:01:05.421Z,18.00
2018-04-15T05:03:33.726Z,18.00
2018-04-15T05:06:01.212Z,18.00
2018-04-15T05:08:28.675Z,18.00
2018-04-15T05:10:56.159Z,18.00
2018-04-15T05:13:23.656Z,18.00
2018-04-15T05:15:51.150Z,18.00
2018-04-15T05:18:18.616Z,18.00
2018-04-15T05:20:46.885Z,18.00
2018-04-15T05:23:14.413Z,18.00
2018-04-15T05:25:41.893Z,18.00
2018-04-15T05:28:09.359Z,18.00
2018-04-15T05:30:36.841Z,18.00
2018-04-15T05:33:04.308Z,18.00
2018-04-15T05:35:31.841Z,18.10
2018-04-15T05:37:59.312Z,18.10
2018-04-15T05:40:26.797Z,18.10
2018-04-15T05:42:54.288Z,18.10
2018-04-15T05:45:21.746Z,18.10
2018-04-15T05:47:49.237Z,18.20
2018-04-15T05:50:16.703Z,18.20
2018-04-15T05:52:44.232Z,18.10
2018-04-15T05:55:12.468Z,18.20
2018-04-15T05:57:40.237Z,18.20
2018-04-15T06:00:07.783Z,18.20
2018-04-15T06:02:35.271Z,18.20
2018-04-15T06:05:02.792Z,18.20
2018-04-15T06:07:30.279Z,18.30
2018-04-15T06:09:57.771Z,18.30
2018-04-15T06:12:25.248Z,18.30
2018-04-15T06:14:52.728Z,18.30
2018-04-15T06:17:20.265Z,18.40
2018-04-15T06:19:48.487Z,18.40
2018-04-15T06:22:15.983Z,18.40
2018-04-15T06:24:43.494Z,18.40
2018-04-15T06:27:11.728Z,18.50
2018-04-15T06:29:39.205Z,18.50
2018-04-15T06:32:06.673Z,18.50
2018-04-15T06:34:34.151Z,18.60
2018-04-15T06:37:01.647Z,18.60
2018-04-15T06:39:29.146Z,18.60
2018-04-15T06:41:57.378Z,18.60
2018-04-15T06:44:24.852Z,18.60
2018-04-15T06:46:52.315Z,18.70
2018-04-15T06:49:19.865Z,18.70
2018-04-15T06:51:47.287Z,18.70
2018-04-15T06:54:14.777Z,18.70
2018-04-15T06:56:43.049Z,18.80
2018-04-15T06:59:10.516Z,18.80
2018-04-15T07:01:37.997Z,18.80
2018-04-15T07:04:06.258Z,18.90
2018-04-15T07:06:33.741Z,18.90
2018-04-15T07:09:01.202Z,18.90
2018-04-15T07:11:28.713Z,19.00
2018-04-15T07:13:56.966Z,19.20
2018-04-15T07:16:24.469Z,19.10
2018-04-15T07:18:52.725Z,19.40
2018-04-15T07:21:20.228Z,19.40
2018-04-15T07:23:47.707Z,19.50
2018-04-15T07:26:15.968Z,19.90
2018-04-15T07:28:44.231Z,20.10
2018-04-15T07:31:11.765Z,20.10
2018-04-15T07:33:40.020Z,20.50
2018-04-15T07:36:07.476Z,20.50
2018-04-15T07:38:34.972Z,20.70
2018-04-15T07:41:02.444Z,21.00
2018-04-15T07:43:29.923Z,21.20
2018-04-15T07:45:58.155Z,21.60
2018-04-15T07:48:25.671Z,21.60
2018-04-15T07:50:53.912Z,22.00
2018-04-15T07:53:21.396Z,22.00
2018-04-15T07:55:48.880Z,22.30
2018-04-15T07:58:16.374Z,22.60
2018-04-15T08:00:43.844Z,23.00
2018-04-15T08:03:11.334Z,23.40
2018-04-15T08:05:39.566Z,24.30
2018-04-15T08:08:07.062Z,24.30
2018-04-15T08:10:34.523Z,24.60
2018-04-15T08:13:01.989Z,24.90
2018-04-15T08:15:29.484Z,25.20
2018-04-15T08:17:56.991Z,25.60
2018-04-15T08:20:24.540Z,25.90
2018-04-15T08:22:52.007Z,26.20
2018-04-15T08:25:19.490Z,26.40
2018-04-15T08:27:47.770Z,26.60
2018-04-15T08:30:15.255Z,26.60
2018-04-15T08:32:44.308Z,27.00
2018-04-15T08:35:11.796Z,27.00
2018-04-15T08:37:39.274Z,27.30
2018-04-15T08:40:06.765Z,27.70
2018-04-15T08:42:34.228Z,28.00
2018-04-15T08:45:01.730Z,28.40
2018-04-15T08:47:29.217Z,28.70
2018-04-15T08:49:56.707Z,29.20
2018-04-15T08:52:24.180Z,29.50
2018-04-15T08:54:51.659Z,29.90
2018-04-15T08:57:19.152Z,30.30
2018-04-15T08:59:46.623Z,30.80
2018-04-15T09:02:14.119Z,31.20
2018-04-15T09:04:41.625Z,31.60
2018-04-15T09:07:10.038Z,32.00
2018-04-15T09:09:37.513Z,32.40
2018-04-15T09:12:04.991Z,32.80
2018-04-15T09:14:32.470Z,33.30
2018-04-15T09:17:00.036Z,33.60
2018-04-15T09:19:27.515Z,34.00
2018-04-15T09:21:54.987Z,34.40
2018-04-15T09:24:22.476Z,34.70
2018-04-15T09:26:50.717Z,35.20
2018-04-15T09:29:18.202Z,35.20
2018-04-15T09:31:46.435Z,35.80
2018-04-15T09:34:14.724Z,36.00
2018-04-15T09:36:43.033Z,36.20
2018-04-15T09:39:10.515Z,36.20
2018-04-15T09:41:38.038Z,36.50
2018-04-15T09:44:05.515Z,36.80
2018-04-15T09:46:33.747Z,37.30
2018-04-15T09:49:01.237Z,37.30
2018-04-15T09:51:28.704Z,37.60
2018-04-15T09:53:56.187Z,37.80
2018-04-15T09:56:24.462Z,38.20
2018-04-15T09:58:51.960Z,38.20
2018-04-15T10:01:19.427Z,38.30
2018-04-15T10:03:46.904Z,38.50
2018-04-15T10:06:14.410Z,38.70
2018-04-15T10:08:41.867Z,39.00
2018-04-15T10:11:10.118Z,39.40
2018-04-15T10:13:37.622Z,39.40
2018-04-15T10:16:05.888Z,39.50
2018-04-15T10:18:33.360Z,39.50
2018-04-15T10:21:00.844Z,39.50
2018-04-15T10:23:28.371Z,39.60
2018-04-15T10:25:55.864Z,39.70
2018-04-15T10:28:23.331Z,39.70
2018-04-15T10:30:50.828Z,39.80
2018-04-15T10:33:18.294Z,39.90
2018-04-15T10:35:45.854Z,40.00
2018-04-15T10:38:13.352Z,40.20
2018-04-15T10:40:40.855Z,40.30
2018-04-15T10:43:08.364Z,40.50
2018-04-15T10:45:35.828Z,40.60
2018-04-15T10:48:03.340Z,40.80
2018-04-15T10:50:30.846Z,41.00
2018-04-15T10:52:58.344Z,41.30
2018-04-15T10:55:25.800Z,41.50
2018-04-15T10:57:53.307Z,41.80
2018-04-15T11:00:20.763Z,42.00
2018-04-15T11:02:48.249Z,42.30
2018-04-15T11:05:15.725Z,42.60
2018-04-15T11:07:43.234Z,42.80
2018-04-15T11:10:11.461Z,43.20
2018-04-15T11:12:38.951Z,43.20
2018-04-15T11:15:06.441Z,43.40
2018-04-15T11:17:34.712Z,43.70
2018-04-15T11:20:02.232Z,43.70
2018-04-15T11:22:29.713Z,43.90
2018-04-15T11:24:57.328Z,44.10
2018-04-15T11:27:24.792Z,44.20
2018-04-15T11:29:52.278Z,44.50
2018-04-15T11:32:19.735Z,44.60
2018-04-15T11:34:47.385Z,44.80
2018-04-15T11:37:14.839Z,45.10
2018-04-15T11:39:42.331Z,45.30
2018-04-15T11:42:09.804Z,45.40
2018-04-15T11:44:37.295Z,45.50
2018-04-15T11:47:04.783Z,45.60
2018-04-15T11:49:32.258Z,45.50
2018-04-15T11:51:59.741Z,45.40
2018-04-15T11:54:27.984Z,44.50
2018-04-15T11:56:55.649Z,44.50
2018-04-15T11:59:23.166Z,43.90
2018-04-15T12:01:51.817Z,43.40
2018-04-15T12:04:19.316Z,42.90
2018-04-15T12:06:46.853Z,42.30
2018-04-15T12:09:14.318Z,41.80
2018-04-15T12:11:41.869Z,41.40
2018-04-15T12:14:10.123Z,41.20
2018-04-15T12:16:37.620Z,41.10
2018-04-15T12:19:05.124Z,41.20
2018-04-15T12:21:32.604Z,41.10
2018-04-15T12:24:00.071Z,41.00
2018-04-15T12:26:27.563Z,40.70
2018-04-15T12:28:55.026Z,40.40
2018-04-15T12:31:22.538Z,40.00
2018-04-15T12:33:50.069Z,39.60
2018-04-15T12:36:18.269Z,38.70
2018-04-15T12:38:45.774Z,38.60
2018-04-15T12:41:13.244Z,38.20
2018-04-15T12:43:40.734Z,37.70
2018-04-15T12:46:08.968Z,36.90
2018-04-15T12:48:36.561Z,36.90
2018-04-15T12:51:04.033Z,36.60
2018-04-15T12:53:31.599Z,36.30
2018-04-15T12:55:59.022Z,36.20
2018-04-15T12:58:27.276Z,36.10
2018-04-15T13:00:54.747Z,36.10
2018-04-15T13:03:22.248Z,36.10
2018-04-15T13:05:50.493Z,36.20
2018-04-15T13:08:17.981Z,36.10
2018-04-15T13:10:45.452Z,36.20
2018-04-15T13:13:12.956Z,36.40
2018-04-15T13:15:41.189Z,37.10
2018-04-15T13:18:08.665Z,37.10
2018-04-15T13:20:36.171Z,37.70
2018-04-15T13:23:04.403Z,38.90
2018-04-15T13:25:31.898Z,38.90
2018-04-15T13:28:00.152Z,40.20
2018-04-15T13:30:27.715Z,40.20
2018-04-15T13:32:55.184Z,40.80
2018-04-15T13:35:22.679Z,41.40
2018-04-15T13:37:50.208Z,41.90
2018-04-15T13:40:18.468Z,42.80
2018-04-15T13:42:45.962Z,42.80
2018-04-15T13:45:13.454Z,43.30
2018-04-15T13:47:41.675Z,44.20
2018-04-15T13:50:09.187Z,44.10
2018-04-15T13:52:36.666Z,44.50
2018-04-15T13:55:04.137Z,44.90
2018-04-15T13:57:32.396Z,45.50
2018-04-15T13:59:59.888Z,45.50
2018-04-15T14:02:27.378Z,45.70
2018-04-15T14:04:55.603Z,46.10
2018-04-15T14:07:23.115Z,46.00
2018-04-15T14:09:50.700Z,46.30
2018-04-15T14:12:18.184Z,46.30
2018-04-15T14:14:45.643Z,46.30
2018-04-15T14:17:13.895Z,45.70
2018-04-15T14:19:41.369Z,45.70
2018-04-15T14:22:08.862Z,45.30
2018-04-15T14:24:36.764Z,45.10
2018-04-15T14:27:05.028Z,44.80
2018-04-15T14:29:32.503Z,44.80
2018-04-15T14:31:59.992Z,44.60
2018-04-15T14:34:27.456Z,44.60
2018-04-15T14:36:54.925Z,44.60
2018-04-15T14:39:22.418Z,44.70
2018-04-15T14:41:50.736Z,44.90
2018-04-15T14:44:18.220Z,44.90
2018-04-15T14:46:45.680Z,44.90
2018-04-15T14:49:13.182Z,44.70
2018-04-15T14:51:40.647Z,44.40
2018-04-15T14:54:08.161Z,43.90
2018-04-15T14:56:36.400Z,42.80
2018-04-15T14:59:03.917Z,42.70
2018-04-15T15:01:31.368Z,42.10
2018-04-15T15:03:58.857Z,41.60
2018-04-15T15:06:27.844Z,40.60
2018-04-15T15:08:55.392Z,40.60
2018-04-15T15:11:22.905Z,40.10
2018-04-15T15:13:51.260Z,39.30
2018-04-15T15:16:18.739Z,39.20
2018-04-15T15:18:46.263Z,38.90
2018-04-15T15:21:13.760Z,38.70
2018-04-15T15:23:41.219Z,38.40
2018-04-15T15:26:08.721Z,38.30
2018-04-15T15:28:36.201Z,38.20
2018-04-15T15:31:03.690Z,38.00
2018-04-15T15:33:31.160Z,37.80
2018-04-15T15:35:59.603Z,37.70
2018-04-15T15:38:27.067Z,37.40
2018-04-15T15:40:54.581Z,37.10
2018-04-15T15:43:22.052Z,36.90
2018-04-15T15:45:49.537Z,36.60
2018-04-15T15:48:17.004Z,36.40
2018-04-15T15:50:44.484Z,36.30
2018-04-15T15:53:11.954Z,36.20
2018-04-15T15:55:39.434Z,36.10
2018-04-15T15:58:06.923Z,36.10
2018-04-15T16:00:35.172Z,35.90
2018-04-15T16:03:02.662Z,35.90
2018-04-15T16:05:30.897Z,35.50
2018-04-15T16:07:58.400Z,35.50
2018-04-15T16:10:25.881Z,35.20
2018-04-15T16:12:53.563Z,35.00
2018-04-15T16:15:21.084Z,34.70
2018-04-15T16:17:48.608Z,34.40
2018-04-15T16:20:16.083Z,34.20
2018-04-15T16:22:44.336Z,33.70
2018-04-15T16:25:11.863Z,33.70
2018-04-15T16:27:41.412Z,33.20
2018-04-15T16:30:09.920Z,33.20
2018-04-15T16:32:37.396Z,33.00
2018-04-15T16:35:04.876Z,32.80
2018-04-15T16:37:32.350Z,32.60
2018-04-15T16:39:59.853Z,32.40
2018-04-15T16:42:28.195Z,32.00
2018-04-15T16:44:55.694Z,32.00
2018-04-15T16:47:23.193Z,31.80
2018-04-15T16:49:50.688Z,31.60
2018-04-15T16:52:18.250Z,31.40
2018-04-15T16:54:45.763Z,31.30
2018-04-15T16:57:13.295Z,31.10
2018-04-15T16:59:40.792Z,30.90
2018-04-15T17:02:09.189Z,30.80
2018-04-15T17:04:36.865Z,30.70
2018-04-15T17:07:04.353Z,30.50
2018-04-15T17:09:31.833Z,30.40
2018-04-15T17:11:59.350Z,30.30
2018-04-15T17:14:26.820Z,30.10
2018-04-15T17:16:54.499Z,30.00
2018-04-15T17:19:21.992Z,29.90
2018-04-15T17:21:49.627Z,29.80
2018-04-15T17:24:17.083Z,29.70
2018-04-15T17:26:45.360Z,29.50
2018-04-15T17:29:12.832Z,29.40
2018-04-15T17:31:40.342Z,29.30
2018-04-15T17:34:07.843Z,29.20
2018-04-15T17:36:35.311Z,29.10
2018-04-15T17:39:02.806Z,29.00
2018-04-15T17:41:30.324Z,28.90
2018-04-15T17:43:57.815Z,28.80
2018-04-15T17:46:25.292Z,28.60
2018-04-15T17:48:53.547Z,28.40
2018-04-15T17:51:21.028Z,28.40
2018-04-15T17:53:48.517Z,28.30
2018-04-15T17:56:15.997Z,28.20
2018-04-15T17:58:43.491Z,28.10
2018-04-15T18:01:10.958Z,28.00
2018-04-15T18:03:38.456Z,27.90
2018-04-15T18:06:06.716Z,27.70
2018-04-15T18:08:34.210Z,27.60
2018-04-15T18:11:02.504Z,27.50
2018-04-15T18:13:30.754Z,27.40
2018-04-15T18:15:58.234Z,27.40
2018-04-15T18:18:25.725Z,27.30
2018-04-15T18:20:53.210Z,27.30
2018-04-15T18:23:21.504Z,27.10
2018-04-15T18:25:49.812Z,27.00
2018-04-15T18:28:17.317Z,27.00
2018-04-15T18:30:44.780Z,26.90
2018-04-15T18:33:12.248Z,26.80
2018-04-15T18:35:39.738Z,26.70
2018-04-15T18:38:07.224Z,26.60
2018-04-15T18:40:34.707Z,26.60
2018-04-15T18:43:02.166Z,26.60
2018-04-15T18:45:29.691Z,26.50
2018-04-15T18:47:57.300Z,26.50
2018-04-15T18:50:24.895Z,26.40
2018-04-15T18:52:52.299Z,26.40
2018-04-15T18:55:19.825Z,26.40
2018-04-15T18:57:47.291Z,26.30
2018-04-15T19:00:14.767Z,26.20
2018-04-15T19:02:42.263Z,26.20
2018-04-15T19:05:10.500Z,26.20
2018-04-15T19:07:37.999Z,26.10
2018-04-15T19:10:05.461Z,26.10
2018-04-15T19:12:32.965Z,26.00
2018-04-15T19:15:01.197Z,25.90
2018-04-15T19:17:28.705Z,25.90
2018-04-15T19:19:56.187Z,25.90
2018-04-15T19:22:24.493Z,25.80
2018-04-15T19:24:51.975Z,25.80
2018-04-15T19:27:19.619Z,25.80
2018-04-15T19:29:47.085Z,25.70
2018-04-15T19:32:14.589Z,25.70
2018-04-15T19:34:42.815Z,25.60
2018-04-15T19:37:10.311Z,25.60
2018-04-15T19:39:37.789Z,25.50
2018-04-15T19:42:05.310Z,25.40
2018-04-15T19:44:33.632Z,25.40
2018-04-15T19:47:01.126Z,25.40
2018-04-15T19:49:28.603Z,25.30
2018-04-15T19:51:56.082Z,25.30
2018-04-15T19:54:24.365Z,25.20
2018-04-15T19:56:52.597Z,25.20
2018-04-15T19:59:20.184Z,25.20
2018-04-15T20:01:47.640Z,25.20
2018-04-15T20:04:15.149Z,25.20
2018-04-15T20:06:43.396Z,25.10
2018-04-15T20:09:11.441Z,25.10
2018-04-15T20:11:39.823Z,25.00
2018-04-15T20:14:08.099Z,25.00
2018-04-15T20:16:35.545Z,25.00
2018-04-15T20:19:03.059Z,25.00
2018-04-15T20:21:30.528Z,24.90
2018-04-15T20:23:58.141Z,24.90
2018-04-15T20:26:25.627Z,24.80
2018-04-15T20:28:53.197Z,24.80
2018-04-15T20:31:20.689Z,24.70
2018-04-15T20:33:48.245Z,24.70
2018-04-15T20:36:15.735Z,24.70
2018-04-15T20:38:44.051Z,24.70
2018-04-15T20:41:11.916Z,24.60
2018-04-15T20:43:39.590Z,24.60
2018-04-15T20:46:07.863Z,24.40
2018-04-15T20:48:35.339Z,24.40
2018-04-15T20:51:02.871Z,24.40
2018-04-15T20:53:30.449Z,24.40
2018-04-15T20:55:58.017Z,24.30
2018-04-15T20:58:25.520Z,24.30
2018-04-15T21:00:52.985Z,24.30
2018-04-15T21:03:20.652Z,24.20
2018-04-15T21:05:48.168Z,24.20
2018-04-15T21:08:15.662Z,24.10
2018-04-15T21:10:43.921Z,24.00
2018-04-15T21:13:11.404Z,23.90
2018-04-15T21:15:38.936Z,23.90
2018-04-15T21:18:06.422Z,23.90
2018-04-15T21:20:34.795Z,23.90
2018-04-15T21:23:02.290Z,23.80
2018-04-15T21:25:29.763Z,23.80
2018-04-15T21:27:57.295Z,23.70
2018-04-15T21:30:24.761Z,23.70
2018-04-15T21:32:52.219Z,23.70
2018-04-15T21:35:20.543Z,23.60
2018-04-15T21:37:48.016Z,23.60
2018-04-15T21:40:15.502Z,23.60
2018-04-15T21:42:42.993Z,23.50
2018-04-15T21:45:10.626Z,23.50
2018-04-15T21:47:38.120Z,23.50
2018-04-15T21:50:05.600Z,23.40
2018-04-15T21:52:33.065Z,23.40
2018-04-15T21:55:00.831Z,23.30
2018-04-15T21:57:28.308Z,23.30
2018-04-15T21:59:55.795Z,23.30
2018-04-15T22:02:23.253Z,23.20
2018-04-15T22:04:50.734Z,23.20
2018-04-15T22:07:18.200Z,23.20
2018-04-15T22:09:45.680Z,23.20
2018-04-15T22:12:15.090Z,23.10
2018-04-15T22:14:43.337Z,23.10
2018-04-15T22:17:10.783Z,23.00
2018-04-15T22:19:38.272Z,23.00
2018-04-15T22:22:05.782Z,23.00
2018-04-15T22:24:33.271Z,22.90
2018-04-15T22:27:00.851Z,22.80
2018-04-15T22:29:28.356Z,22.80
2018-04-15T22:31:55.855Z,22.80
2018-04-15T22:34:23.331Z,22.70
2018-04-15T22:36:50.822Z,22.70
2018-04-15T22:39:18.296Z,22.60
2018-04-15T22:41:46.586Z,22.50
2018-04-15T22:44:14.076Z,22.50
2018-04-15T22:46:41.662Z,22.50
2018-04-15T22:49:14.965Z,22.50
2018-04-15T22:51:42.588Z,22.40
2018-04-15T22:54:10.051Z,22.40
2018-04-15T22:56:43.401Z,22.40
2018-04-15T22:59:10.884Z,22.40
2018-04-15T23:01:38.352Z,22.30
2018-04-15T23:04:05.864Z,22.30
2018-04-15T23:06:33.440Z,22.30
2018-04-15T23:09:00.936Z,22.20
2018-04-15T23:11:28.395Z,22.20
2018-04-15T23:13:55.920Z,22.20
2018-04-15T23:16:23.525Z,22.10
2018-04-15T23:18:51.027Z,22.10
2018-04-15T23:21:18.497Z,22.00
2018-04-15T23:23:45.988Z,22.00
2018-04-15T23:26:13.466Z,22.00
2018-04-15T23:28:41.075Z,22.00
2018-04-15T23:31:09.328Z,21.90
2018-04-15T23:33:36.853Z,21.90
2018-04-15T23:36:04.319Z,21.90
2018-04-15T23:38:31.796Z,21.90
2018-04-15T23:40:59.298Z,21.90
2018-04-15T23:43:26.796Z,21.90
2018-04-15T23:45:54.280Z,21.90
2018-04-15T23:48:22.550Z,21.90
2018-04-15T23:50:50.096Z,21.80
2018-04-15T23:53:17.554Z,21.80
2018-04-15T23:55:45.037Z,21.80
2018-04-15T23:58:12.501Z,21.80
